createdAt,value
2023-01-03T00:02:25.025Z,15.97
2023-01-03T00:04:54.366Z,15.40
2023-01-03T00:07:34.032Z,15.83
2023-01-03T00:10:04.954Z,15.97
2023-01-03T00:12:37.759Z,15.60
2023-01-03T00:15:07.136Z,15.43
2023-01-03T00:17:37.670Z,15.17
2023-01-03T00:20:05.461Z,15.63
2023-01-03T00:22:33.970Z,15.67
2023-01-03T00:25:03.720Z,15.87
2023-01-03T00:27:31.830Z,15.80
2023-01-03T00:29:58.747Z,15.60
2023-01-03T00:32:27.903Z,14.63
2023-01-03T00:34:58.907Z,15.17
2023-01-03T00:37:31.750Z,15.03
2023-01-03T00:40:00.127Z,13.93
2023-01-03T00:42:31.543Z,14.03
2023-01-03T00:45:01.215Z,14.57
2023-01-03T00:47:30.864Z,15.17
2023-01-03T00:50:01.555Z,15.30
2023-01-03T00:52:30.764Z,14.53
2023-01-03T00:55:00.232Z,13.50
2023-01-03T00:57:32.155Z,13.77
2023-01-03T00:59:59.254Z,13.87
2023-01-03T01:02:28.761Z,13.97
2023-01-03T01:04:56.380Z,14.00
2023-01-03T01:07:26.223Z,13.70
2023-01-03T01:09:54.758Z,14.47
2023-01-03T01:12:24.139Z,14.00
2023-01-03T01:14:54.694Z,14.27
2023-01-03T01:17:24.252Z,13.73
2023-01-03T01:19:51.214Z,14.50
2023-01-03T01:22:19.927Z,14.40
2023-01-03T01:24:49.429Z,14.43
2023-01-03T01:30:12.124Z,13.90
2023-01-03T01:32:40.360Z,14.13
2023-01-03T01:35:10.636Z,13.80
2023-01-03T01:37:38.791Z,13.97
2023-01-03T01:40:11.423Z,16.00
2023-01-03T01:42:57.084Z,16.30
2023-01-03T01:45:32.739Z,16.37
2023-01-03T01:48:12.567Z,16.83
2023-01-03T01:50:55.360Z,15.90
2023-01-03T01:53:27.471Z,15.60
2023-01-03T01:59:11.594Z,16.73
2023-01-03T02:01:42.078Z,15.17
2023-01-03T02:04:32.375Z,15.87
2023-01-03T02:07:05.275Z,17.47
2023-01-03T02:09:36.539Z,16.87
2023-01-03T02:12:50.811Z,16.00
2023-01-03T02:15:52.019Z,18.37
2023-01-03T02:18:50.232Z,16.77
2023-01-03T02:21:37.418Z,16.30
2023-01-03T02:24:51.178Z,15.63
2023-01-03T02:27:36.705Z,17.60
2023-01-03T02:30:12.060Z,16.00
2023-01-03T02:33:07.960Z,16.43
2023-01-03T02:35:55.587Z,15.13
2023-01-03T02:39:03.671Z,16.30
2023-01-03T02:42:20.315Z,14.90
2023-01-03T02:45:19.484Z,13.70
2023-01-03T02:47:57.183Z,15.10
2023-01-03T02:50:46.707Z,13.67
2023-01-03T02:53:33.309Z,14.00
2023-01-03T02:56:06.167Z,14.77
2023-01-03T02:58:49.076Z,13.53
2023-01-03T03:01:18.892Z,13.73
2023-01-03T03:03:47.062Z,14.47
2023-01-03T03:06:32.670Z,14.00
2023-01-03T03:09:07.364Z,13.77
2023-01-03T03:11:58.376Z,13.20
2023-01-03T03:14:52.384Z,13.23
2023-01-03T03:17:32.776Z,13.37
2023-01-03T03:20:22.781Z,14.10
2023-01-03T03:23:15.740Z,13.07
2023-01-03T03:25:55.918Z,12.90
2023-01-03T03:28:38.997Z,12.97
2023-01-03T03:31:28.763Z,12.47
2023-01-03T03:34:09.199Z,13.30
2023-01-03T03:37:03.343Z,13.67
2023-01-03T03:39:51.292Z,13.17
2023-01-03T03:43:06.261Z,12.53
2023-01-03T03:46:11.329Z,13.37
2023-01-03T03:49:19.615Z,13.20
2023-01-03T03:51:50.167Z,13.97
2023-01-03T03:54:29.181Z,12.70
2023-01-03T03:57:07.323Z,13.13
2023-01-03T03:59:37.111Z,12.93
2023-01-03T04:02:08.208Z,12.07
2023-01-03T04:04:48.470Z,13.53
2023-01-03T04:07:16.731Z,13.30
2023-01-03T04:09:46.100Z,13.80
2023-01-03T04:12:14.146Z,13.97
2023-01-03T04:14:44.267Z,14.40
2023-01-03T04:17:12.292Z,14.57
2023-01-03T04:19:41.303Z,14.60
2023-01-03T04:22:11.724Z,14.63
2023-01-03T04:24:38.645Z,13.93
2023-01-03T04:27:06.883Z,13.90
2023-01-03T04:29:38.982Z,13.00
2023-01-03T04:32:10.787Z,13.93
2023-01-03T04:34:40.956Z,13.90
2023-01-03T04:37:07.966Z,13.73
2023-01-03T04:39:37.539Z,13.40
2023-01-03T04:42:30.085Z,13.97
2023-01-03T04:44:57.176Z,13.70
2023-01-03T04:47:27.439Z,13.90
2023-01-03T04:49:55.677Z,13.03
2023-01-03T04:55:08.484Z,13.30
2023-01-03T04:57:37.068Z,13.60
2023-01-03T05:00:06.583Z,14.10
2023-01-03T05:02:36.574Z,14.13
2023-01-03T05:05:14.026Z,13.80
2023-01-03T05:07:44.099Z,14.37
2023-01-03T05:10:11.113Z,14.50
2023-01-03T05:12:39.047Z,15.03
2023-01-03T05:15:08.744Z,14.27
2023-01-03T05:17:35.742Z,14.50
2023-01-03T05:20:23.204Z,14.43
2023-01-03T05:23:11.268Z,14.00
2023-01-03T05:25:54.282Z,13.80
2023-01-03T05:28:31.642Z,13.97
2023-01-03T05:30:59.804Z,15.10
2023-01-03T05:33:30.081Z,15.27
2023-01-03T05:38:43.066Z,16.40
2023-01-03T05:41:12.242Z,16.07
2023-01-03T05:43:42.208Z,16.77
2023-01-03T05:46:12.478Z,15.50
2023-01-03T05:48:40.855Z,15.40
2023-01-03T05:51:09.193Z,16.33
2023-01-03T05:53:37.967Z,17.03
2023-01-03T05:56:06.689Z,16.30
2023-01-03T05:58:33.745Z,17.30
2023-01-03T06:01:07.718Z,16.03
2023-01-03T06:03:36.337Z,14.60
2023-01-03T06:06:12.717Z,15.30
2023-01-03T06:08:40.450Z,16.10
2023-01-03T06:11:12.526Z,13.80
2023-01-03T06:13:40.847Z,14.77
2023-01-03T06:16:41.736Z,16.43
2023-01-03T06:19:08.908Z,15.43
2023-01-03T06:21:37.672Z,14.33
2023-01-03T06:24:07.627Z,14.33
2023-01-03T06:26:35.582Z,16.40
2023-01-03T06:29:07.662Z,16.13
2023-01-03T06:31:36.875Z,16.90
2023-01-03T06:34:04.355Z,20.53
2023-01-03T06:36:37.135Z,20.17
2023-01-03T06:39:07.765Z,18.47
2023-01-03T06:41:37.536Z,17.70
2023-01-03T06:44:07.015Z,17.50
2023-01-03T06:46:54.238Z,16.80
2023-01-03T06:49:43.441Z,17.63
2023-01-03T06:52:37.384Z,16.87
2023-01-03T06:55:10.427Z,16.20
2023-01-03T06:57:40.179Z,15.07
2023-01-03T07:00:09.706Z,17.17
2023-01-03T07:02:37.135Z,16.70
2023-01-03T07:05:07.956Z,14.63
2023-01-03T07:07:38.205Z,14.63
2023-01-03T07:10:08.012Z,13.10
2023-01-03T07:12:54.226Z,13.20
2023-01-03T07:15:23.224Z,12.40
2023-01-03T07:17:56.096Z,12.17
2023-01-03T07:20:24.231Z,13.80
2023-01-03T07:22:55.350Z,13.80
2023-01-03T07:25:23.459Z,16.17
2023-01-03T07:28:05.831Z,14.07
2023-01-03T07:30:46.926Z,13.37
2023-01-03T07:33:19.002Z,14.93
2023-01-03T07:35:46.891Z,15.80
2023-01-03T07:38:16.385Z,15.50
2023-01-03T07:40:47.219Z,14.63
2023-01-03T07:43:34.107Z,14.40
2023-01-03T07:46:25.100Z,14.63
2023-01-03T07:48:57.488Z,14.07
2023-01-03T07:51:24.539Z,14.03
2023-01-03T07:54:00.637Z,13.57
2023-01-03T07:56:33.028Z,13.93
2023-01-03T07:59:05.233Z,13.93
2023-01-03T08:01:34.569Z,15.17
2023-01-03T08:04:05.462Z,21.37
2023-01-03T08:06:36.684Z,25.37
2023-01-03T08:09:28.698Z,24.30
2023-01-03T08:12:17.791Z,19.77
2023-01-03T08:14:47.754Z,18.63
2023-01-03T08:17:18.994Z,19.47
2023-01-03T08:19:49.913Z,19.67
2023-01-03T08:22:18.417Z,20.60
2023-01-03T08:27:31.833Z,17.70
2023-01-03T08:29:58.879Z,16.93
2023-01-03T08:32:27.547Z,16.70
2023-01-03T08:34:55.098Z,15.93
2023-01-03T08:37:23.791Z,16.10
2023-01-03T08:39:55.744Z,16.03
2023-01-03T08:42:30.244Z,16.60
2023-01-03T08:45:10.080Z,16.10
2023-01-03T08:47:42.111Z,15.87
2023-01-03T08:50:16.922Z,16.77
2023-01-03T08:52:49.188Z,17.87
2023-01-03T08:55:16.332Z,17.07
2023-01-03T08:57:43.832Z,17.33
2023-01-03T09:00:16.353Z,17.90
2023-01-03T09:02:47.355Z,17.50
2023-01-03T09:05:15.795Z,17.77
2023-01-03T09:07:43.301Z,18.53
2023-01-03T09:10:19.096Z,17.60
2023-01-03T09:12:47.630Z,19.10
2023-01-03T09:15:18.506Z,18.67
2023-01-03T09:17:50.030Z,17.33
2023-01-03T09:20:19.235Z,17.93
2023-01-03T09:22:50.194Z,18.03
2023-01-03T09:25:22.323Z,17.33
2023-01-03T09:27:50.643Z,18.00
2023-01-03T09:30:19.932Z,17.67
2023-01-03T09:32:56.068Z,15.57
2023-01-03T09:35:28.714Z,14.67
2023-01-03T09:37:56.722Z,13.87
2023-01-03T09:40:24.318Z,14.63
2023-01-03T09:43:11.218Z,15.67
2023-01-03T09:45:43.748Z,15.33
2023-01-03T09:48:20.140Z,15.10
2023-01-03T09:51:17.139Z,14.57
2023-01-03T09:53:59.211Z,15.80
2023-01-03T09:56:48.082Z,14.33
2023-01-03T09:59:38.231Z,16.63
2023-01-03T10:03:03.574Z,12.77
2023-01-03T10:05:49.216Z,14.40
2023-01-03T10:08:24.060Z,13.13
2023-01-03T10:11:11.180Z,12.27
2023-01-03T10:14:16.729Z,13.17
2023-01-03T10:17:00.525Z,12.57
2023-01-03T10:19:49.205Z,12.70
2023-01-03T10:22:28.175Z,12.53
2023-01-03T10:25:10.161Z,13.20
2023-01-03T10:27:55.884Z,11.93
2023-01-03T10:31:07.547Z,11.67
2023-01-03T10:33:46.423Z,12.13
2023-01-03T10:36:18.998Z,12.47
2023-01-03T10:38:53.273Z,12.47
2023-01-03T10:41:45.638Z,12.17
2023-01-03T10:44:34.967Z,10.93
2023-01-03T10:47:15.509Z,11.40
2023-01-03T10:49:49.046Z,10.53
2023-01-03T10:52:31.746Z,10.80
2023-01-03T10:55:19.188Z,9.77
2023-01-03T10:57:59.902Z,10.43
2023-01-03T11:00:39.857Z,10.27
2023-01-03T11:03:19.408Z,10.50
2023-01-03T11:06:09.627Z,10.10
2023-01-03T11:08:47.317Z,9.77
2023-01-03T11:11:41.201Z,9.30
2023-01-03T11:14:27.404Z,8.87
2023-01-03T11:19:41.263Z,7.63
2023-01-03T11:22:19.663Z,8.10
2023-01-03T11:25:09.856Z,7.63
2023-01-03T11:28:16.531Z,7.03
2023-01-03T11:31:13.378Z,6.50
2023-01-03T11:34:12.711Z,6.07
2023-01-03T11:36:54.500Z,6.00
2023-01-03T11:39:36.532Z,5.50
2023-01-03T11:42:16.212Z,5.90
2023-01-03T11:44:54.995Z,5.47
2023-01-03T11:48:00.761Z,5.70
2023-01-03T11:51:00.890Z,5.63
2023-01-03T11:53:40.875Z,5.57
2023-01-03T11:56:31.589Z,5.70
2023-01-03T11:59:36.157Z,6.00
2023-01-03T12:02:18.390Z,5.87
2023-01-03T12:05:18.984Z,5.77
2023-01-03T12:08:36.194Z,5.50
2023-01-03T12:11:37.814Z,5.60
2023-01-03T12:14:50.876Z,5.20
2023-01-03T12:17:49.933Z,5.60
2023-01-03T12:20:37.426Z,6.20
2023-01-03T12:23:06.863Z,7.80
2023-01-03T12:25:47.105Z,6.90
2023-01-03T12:28:35.814Z,7.23
2023-01-03T12:31:32.280Z,6.60
2023-01-03T12:34:39.672Z,5.80
2023-01-03T12:37:40.217Z,5.60
2023-01-03T12:40:41.618Z,6.17
2023-01-03T12:43:31.361Z,5.87
2023-01-03T12:46:10.286Z,5.87
2023-01-03T12:49:59.317Z,5.97
2023-01-03T12:52:30.151Z,5.10
2023-01-03T12:55:47.051Z,5.50
2023-01-03T12:58:50.810Z,5.60
2023-01-03T13:01:47.133Z,5.80
2023-01-03T13:04:41.837Z,5.23
2023-01-03T13:07:29.856Z,5.60
2023-01-03T13:10:05.260Z,5.10
2023-01-03T13:12:37.487Z,5.10
2023-01-03T13:15:38.656Z,5.13
2023-01-03T13:18:28.702Z,4.90
2023-01-03T13:20:56.381Z,5.57
2023-01-03T13:24:11.577Z,4.63
2023-01-03T13:26:40.668Z,4.83
2023-01-03T13:29:58.795Z,4.70
2023-01-03T13:32:37.915Z,4.20
2023-01-03T13:35:37.492Z,3.70
2023-01-03T13:38:25.176Z,3.67
2023-01-03T13:41:19.644Z,4.07
2023-01-03T13:43:58.470Z,3.87
2023-01-03T13:46:31.491Z,4.10
2023-01-03T13:49:10.526Z,4.40
2023-01-03T13:51:51.831Z,4.10
2023-01-03T13:54:18.855Z,4.70
2023-01-03T13:57:05.731Z,3.90
2023-01-03T13:59:47.486Z,4.40
2023-01-03T14:02:36.598Z,4.80
2023-01-03T14:05:15.725Z,4.40
2023-01-03T14:08:01.639Z,4.87
2023-01-03T14:10:56.999Z,4.60
2023-01-03T14:13:55.942Z,4.77
2023-01-03T14:16:55.479Z,4.73
2023-01-03T14:19:37.048Z,5.40
2023-01-03T14:22:30.943Z,5.30
2023-01-03T14:24:59.315Z,5.57
2023-01-03T14:27:41.211Z,5.60
2023-01-03T14:30:31.124Z,5.23
2023-01-03T14:32:59.642Z,5.17
2023-01-03T14:35:41.555Z,4.90
2023-01-03T14:38:30.575Z,5.10
2023-01-03T14:40:58.207Z,5.10
2023-01-03T14:43:31.259Z,5.47
2023-01-03T14:46:06.268Z,5.30
2023-01-03T14:48:38.419Z,5.30
2023-01-03T14:51:07.584Z,5.40
2023-01-03T14:53:37.612Z,5.53
2023-01-03T14:56:06.979Z,5.90
2023-01-03T14:58:40.699Z,5.20
2023-01-03T15:01:16.812Z,5.27
2023-01-03T15:03:48.330Z,5.40
2023-01-03T15:06:30.248Z,5.50
2023-01-03T15:09:12.766Z,5.70
2023-01-03T15:12:03.692Z,5.67
2023-01-03T15:14:39.112Z,5.40
2023-01-03T15:17:21.465Z,5.53
2023-01-03T15:19:55.823Z,5.50
2023-01-03T15:22:27.008Z,5.80
2023-01-03T15:25:11.457Z,6.93
2023-01-03T15:27:38.506Z,6.80
2023-01-03T15:30:19.171Z,7.43
2023-01-03T15:33:04.442Z,7.43
2023-01-03T15:35:54.345Z,7.80
2023-01-03T15:38:34.584Z,10.50
2023-01-03T15:41:49.054Z,10.10
2023-01-03T15:44:28.529Z,11.80
2023-01-03T15:47:00.729Z,9.87
2023-01-03T15:49:38.150Z,9.37
2023-01-03T15:52:17.067Z,10.20
2023-01-03T15:54:49.519Z,9.43
2023-01-03T15:57:32.241Z,8.63
2023-01-03T16:02:47.693Z,9.53
2023-01-03T16:05:22.681Z,9.70
2023-01-03T16:07:55.459Z,9.30
2023-01-03T16:10:27.241Z,9.07
2023-01-03T16:13:01.598Z,8.93
2023-01-03T16:15:32.602Z,9.47
2023-01-03T16:18:01.787Z,8.53
2023-01-03T16:20:33.333Z,9.57
2023-01-03T16:23:18.093Z,10.80
2023-01-03T16:25:46.136Z,10.77
2023-01-03T16:28:16.638Z,9.00
2023-01-03T16:30:47.187Z,8.60
2023-01-03T16:33:28.376Z,8.60
2023-01-03T16:35:57.400Z,10.27
2023-01-03T16:38:34.061Z,14.20
2023-01-03T16:41:01.127Z,15.17
2023-01-03T16:43:30.927Z,11.80
2023-01-03T16:45:59.884Z,12.50
2023-01-03T16:48:38.161Z,11.57
2023-01-03T16:51:06.364Z,11.37
2023-01-03T16:53:37.084Z,10.70
2023-01-03T16:56:07.431Z,11.17
2023-01-03T16:58:37.249Z,10.60
2023-01-03T17:01:05.553Z,10.67
2023-01-03T17:03:39.551Z,10.27
2023-01-03T17:06:38.065Z,11.20
2023-01-03T17:09:20.957Z,11.27
2023-01-03T17:11:49.251Z,11.50
2023-01-03T17:14:21.276Z,11.23
2023-01-03T17:17:01.141Z,11.93
2023-01-03T17:22:23.070Z,12.30
2023-01-03T17:24:54.672Z,11.63
2023-01-03T17:27:32.535Z,12.33
2023-01-03T17:30:04.992Z,12.40
2023-01-03T17:32:38.651Z,13.00
2023-01-03T17:35:20.953Z,12.67
2023-01-03T17:40:42.115Z,12.80
2023-01-03T17:43:18.778Z,13.33
2023-01-03T17:46:23.639Z,13.77
2023-01-03T17:49:12.229Z,14.93
2023-01-03T17:51:43.190Z,14.77
2023-01-03T17:54:16.465Z,14.27
2023-01-03T17:56:47.963Z,14.70
2023-01-03T17:59:18.047Z,14.10
2023-01-03T18:01:47.462Z,14.40
2023-01-03T18:04:19.441Z,13.60
2023-01-03T18:07:00.821Z,14.10
2023-01-03T18:09:58.259Z,13.97
2023-01-03T18:12:34.548Z,14.30
2023-01-03T18:15:04.184Z,14.57
2023-01-03T18:17:34.963Z,15.90
2023-01-03T18:20:12.205Z,15.20
2023-01-03T18:22:41.943Z,15.70
2023-01-03T18:25:27.092Z,14.03
2023-01-03T18:28:06.788Z,14.63
2023-01-03T18:30:38.986Z,15.57
2023-01-03T18:33:07.638Z,15.43
2023-01-03T18:35:38.716Z,15.47
2023-01-03T18:38:18.606Z,15.90
2023-01-03T18:41:21.265Z,16.33
2023-01-03T18:43:53.721Z,16.67
2023-01-03T18:46:24.378Z,16.63
2023-01-03T18:48:52.678Z,15.73
2023-01-03T18:51:24.477Z,17.00
2023-01-03T18:53:56.314Z,16.50
2023-01-03T18:56:28.329Z,15.93
2023-01-03T18:59:02.137Z,16.23
2023-01-03T19:01:30.275Z,15.93
2023-01-03T19:03:58.816Z,15.47
2023-01-03T19:06:39.421Z,16.07
2023-01-03T19:09:29.519Z,25.73
2023-01-03T19:11:58.308Z,20.10
2023-01-03T19:14:29.214Z,15.87
2023-01-03T19:16:58.713Z,15.90
2023-01-03T19:19:26.008Z,15.67
2023-01-03T19:21:57.185Z,15.50
2023-01-03T19:24:51.217Z,14.70
2023-01-03T19:27:29.497Z,15.37
2023-01-03T19:30:01.523Z,16.43
2023-01-03T19:32:31.893Z,16.63
2023-01-03T19:35:00.364Z,16.77
2023-01-03T19:37:28.643Z,17.13
2023-01-03T19:39:56.078Z,17.17
2023-01-03T19:42:46.904Z,16.20
2023-01-03T19:45:43.031Z,16.77
2023-01-03T19:48:25.512Z,16.53
2023-01-03T19:50:56.617Z,16.57
2023-01-03T19:53:34.817Z,17.17
2023-01-03T19:56:12.783Z,17.53
2023-01-03T19:58:50.468Z,15.97
2023-01-03T20:01:27.547Z,15.77
2023-01-03T20:03:58.677Z,16.30
2023-01-03T20:06:29.251Z,15.43
2023-01-03T20:08:59.245Z,15.63
2023-01-03T20:11:27.863Z,14.97
2023-01-03T20:13:59.284Z,14.67
2023-01-03T20:16:39.512Z,15.20
2023-01-03T20:19:19.398Z,15.00
2023-01-03T20:21:58.931Z,16.90
2023-01-03T20:24:33.030Z,16.73
2023-01-03T20:27:01.017Z,17.17
2023-01-03T20:29:30.424Z,16.17
2023-01-03T20:32:02.482Z,15.73
2023-01-03T20:34:33.679Z,15.87
2023-01-03T20:37:05.883Z,15.30
2023-01-03T20:39:41.212Z,15.93
2023-01-03T20:42:34.617Z,15.57
2023-01-03T20:45:01.867Z,15.73
2023-01-03T20:47:31.200Z,15.97
2023-01-03T20:50:09.038Z,15.30
2023-01-03T20:52:36.330Z,16.27
2023-01-03T20:55:04.709Z,15.50
2023-01-03T20:57:33.648Z,16.67
2023-01-03T21:00:01.794Z,16.73
2023-01-03T21:02:33.805Z,18.00
2023-01-03T21:05:01.634Z,18.03
2023-01-03T21:07:50.514Z,18.00
2023-01-03T21:10:25.118Z,17.70
2023-01-03T21:12:54.650Z,17.53
2023-01-03T21:15:24.179Z,17.17
2023-01-03T21:17:54.760Z,18.30
2023-01-03T21:20:28.335Z,17.63
2023-01-03T21:22:58.456Z,17.50
2023-01-03T21:25:32.927Z,18.27
2023-01-03T21:28:05.420Z,18.60
2023-01-03T21:30:33.842Z,17.97
2023-01-03T21:33:10.008Z,17.90
2023-01-03T21:35:41.549Z,18.23
2023-01-03T21:38:13.879Z,17.83
2023-01-03T21:40:45.075Z,17.53
2023-01-03T21:43:15.070Z,17.00
2023-01-03T21:45:50.739Z,17.07
2023-01-03T21:48:18.967Z,17.90
2023-01-03T21:50:49.904Z,17.73
2023-01-03T21:53:20.586Z,17.70
2023-01-03T21:55:48.629Z,16.20
2023-01-03T21:58:19.114Z,17.07
2023-01-03T22:00:47.097Z,17.90
2023-01-03T22:03:35.269Z,17.47
2023-01-03T22:06:31.185Z,17.10
2023-01-03T22:09:00.043Z,18.03
2023-01-03T22:11:30.451Z,18.07
2023-01-03T22:14:00.662Z,17.23
2023-01-03T22:16:29.663Z,17.77
2023-01-03T22:18:59.693Z,17.27
2023-01-03T22:21:27.379Z,18.93
2023-01-03T22:23:58.472Z,17.90
2023-01-03T22:26:34.185Z,18.17
2023-01-03T22:29:01.745Z,17.90
2023-01-03T22:31:30.086Z,17.87
2023-01-03T22:33:57.339Z,18.33
2023-01-03T22:36:25.180Z,18.23
2023-01-03T22:38:52.831Z,18.27
2023-01-03T22:41:24.173Z,17.17
2023-01-03T22:43:52.849Z,18.30
2023-01-03T22:46:21.411Z,17.73
2023-01-03T22:48:49.758Z,17.13
2023-01-03T22:51:17.999Z,17.40
2023-01-03T22:53:50.205Z,18.57
2023-01-03T22:56:20.309Z,17.70
2023-01-03T22:58:51.281Z,17.97
2023-01-03T23:01:30.360Z,18.80
2023-01-03T23:04:01.323Z,17.63
2023-01-03T23:06:31.470Z,18.80
2023-01-03T23:12:09.369Z,19.50
2023-01-03T23:14:36.389Z,19.40
2023-01-03T23:17:25.435Z,19.27
2023-01-03T23:19:54.292Z,19.17
2023-01-03T23:22:22.435Z,19.20
2023-01-03T23:24:51.282Z,19.67
2023-01-03T23:27:21.281Z,19.37
2023-01-03T23:29:49.492Z,20.10
2023-01-03T23:32:16.815Z,19.80
2023-01-03T23:37:30.820Z,19.57
2023-01-03T23:40:03.555Z,18.97
2023-01-03T23:42:33.567Z,19.77
2023-01-03T23:45:01.295Z,18.93
2023-01-03T23:47:28.508Z,20.40
2023-01-03T23:49:55.588Z,19.27
2023-01-03T23:52:23.648Z,19.53
2023-01-03T23:54:56.161Z,18.57
2023-01-03T23:57:29.087Z,18.27
2023-01-03T23:59:59.343Z,19.40
